Time;durP1;ratioP1;P1;durP2;ratioP2;P2;SDS_P1;SDS_P2;PMS_P1;PMS_P2;Temp;Humidity;BMP_temperature;BMP_pressure;BME280_temperature;BME280_humidity;BME280_pressure;Samples;Min_cycle;Max_cycle;Signal;HPM_P1;HPM_P2
2023/01/30 00:01:47;;;;;;;48.93;43.60;;;4.50;99.90;;;;;;5986780;23;20904;-70
2023/01/30 00:04:15;;;;;;;50.60;45.10;;;4.50;99.90;;;;;;5986743;23;20893;-70
2023/01/30 00:06:44;;;;;;;52.80;46.10;;;4.50;99.90;;;;;;6020874;23;20415;-69
2023/01/30 00:09:14;;;;;;;47.87;42.63;;;4.50;99.90;;;;;;5986668;23;20440;-70
2023/01/30 00:11:42;;;;;;;54.13;46.30;;;4.50;99.90;;;;;;6021380;23;20465;-69
2023/01/30 00:14:12;;;;;;;50.07;43.70;;;4.50;99.90;;;;;;6021621;23;20495;-69
2023/01/30 00:16:40;;;;;;;51.03;45.43;;;4.60;99.90;;;;;;6021077;23;20411;-69
2023/01/30 00:19:09;;;;;;;53.37;45.00;;;4.60;99.90;;;;;;6020966;23;20421;-69
2023/01/30 00:21:37;;;;;;;49.97;44.10;;;4.60;99.90;;;;;;6021277;23;20401;-70
2023/01/30 00:24:05;;;;;;;47.60;42.17;;;4.60;99.90;;;;;;6021373;23;20535;-71
2023/01/30 00:26:33;;;;;;;50.33;44.77;;;4.60;99.90;;;;;;6020984;23;20420;-70
2023/01/30 00:29:02;;;;;;;54.73;44.90;;;4.60;99.90;;;;;;6020816;23;20421;-69
2023/01/30 00:31:32;;;;;;;55.47;46.10;;;4.60;99.90;;;;;;5986419;23;20424;-69
2023/01/30 00:34:00;;;;;;;51.20;45.80;;;4.60;99.90;;;;;;5986718;23;20453;-70
2023/01/30 00:36:28;;;;;;;55.60;45.30;;;4.60;99.90;;;;;;5986696;23;20895;-70
2023/01/30 00:38:58;;;;;;;55.03;46.10;;;4.60;99.90;;;;;;5986391;23;20492;-71
2023/01/30 00:47:04;;;;;;;54.23;47.27;;;4.70;99.90;;;;;;6001644;23;20424;-71
2023/01/30 00:47:05;;;;;;;59.37;49.10;;;4.70;99.90;;;;;;6021106;23;20385;-70
2023/01/30 00:49:33;;;;;;;54.53;48.40;;;4.70;99.90;;;;;;6009931;23;20520;-70
2023/01/30 00:52:02;;;;;;;53.40;46.33;;;4.70;99.90;;;;;;6009800;23;20452;-70
2023/01/30 00:54:30;;;;;;;54.80;47.93;;;4.80;99.90;;;;;;6010112;23;20509;-70
2023/01/30 00:56:58;;;;;;;51.90;45.13;;;4.80;99.90;;;;;;6009708;23;20511;-70
2023/01/30 00:59:26;;;;;;;57.40;48.13;;;4.80;99.90;;;;;;6021098;23;20965;-70
2023/01/30 01:01:55;;;;;;;55.67;47.53;;;4.80;99.90;;;;;;6011616;23;20409;-70
2023/01/30 01:04:24;;;;;;;49.43;44.10;;;4.80;99.90;;;;;;6009926;23;20809;-70
2023/01/30 01:06:53;;;;;;;54.90;47.10;;;4.80;99.90;;;;;;6009868;23;20424;-71
2023/01/30 01:09:21;;;;;;;56.03;48.80;;;4.90;99.90;;;;;;6020654;23;20402;-70
2023/01/30 01:11:49;;;;;;;55.03;48.47;;;4.90;99.90;;;;;;6020990;23;20409;-70
2023/01/30 01:14:17;;;;;;;55.70;49.67;;;4.90;99.90;;;;;;6009704;23;20427;-70
2023/01/30 01:16:45;;;;;;;53.20;47.30;;;4.90;99.90;;;;;;6009865;23;20765;-71
2023/01/30 01:19:13;;;;;;;55.30;47.30;;;4.90;99.90;;;;;;6020539;23;20421;-70
2023/01/30 01:21:43;;;;;;;52.33;46.20;;;5.00;99.90;;;;;;6010052;23;20956;-70
2023/01/30 01:24:13;;;;;;;54.20;48.30;;;5.00;99.90;;;;;;6009663;23;20752;-70
2023/01/30 01:26:41;;;;;;;51.43;46.00;;;5.10;99.90;;;;;;6009730;23;20488;-71
2023/01/30 01:29:12;;;;;;;54.13;48.13;;;5.10;99.90;;;;;;6009667;23;20432;-70
2023/01/30 01:31:41;;;;;;;56.20;44.33;;;5.10;99.90;;;;;;6020629;23;20397;-71
2023/01/30 01:34:09;;;;;;;52.40;46.20;;;5.20;99.90;;;;;;6009600;23;20516;-70
2023/01/30 01:36:38;;;;;;;56.80;46.00;;;5.20;99.90;;;;;;6009671;23;20503;-70
2023/01/30 01:39:22;;;;;;;52.93;47.37;;;5.20;99.90;;;;;;6009698;23;20424;-70
2023/01/30 01:41:50;;;;;;;55.50;46.37;;;5.30;99.90;;;;;;6020538;23;20947;-70
2023/01/30 01:44:18;;;;;;;52.23;45.20;;;5.30;99.90;;;;;;6020528;23;20401;-70
2023/01/30 01:46:50;;;;;;;54.00;47.60;;;5.30;99.90;;;;;;5986038;23;20805;-70
2023/01/30 01:49:22;;;;;;;49.30;42.63;;;5.40;99.90;;;;;;5986750;23;20438;-70
2023/01/30 01:51:56;;;;;;;49.90;43.20;;;5.40;99.90;;;;;;6020747;23;20441;-70
2023/01/30 01:54:32;;;;;;;51.40;45.27;;;5.40;99.90;;;;;;6011843;23;20461;-70
2023/01/30 01:57:03;;;;;;;48.10;42.97;;;5.40;99.90;;;;;;5986047;23;20408;-70
2023/01/30 01:59:35;;;;;;;53.87;47.37;;;5.50;99.90;;;;;;5986162;23;20760;-71
2023/01/30 02:02:08;;;;;;;51.60;46.20;;;5.50;99.90;;;;;;5986221;23;20401;-70
2023/01/30 02:07:26;;;;;;;48.60;43.33;;;5.60;99.90;;;;;;5986020;23;20943;-70
2023/01/30 02:09:56;;;;;;;50.13;44.77;;;5.60;99.90;;;;;;5986015;23;20428;-71
2023/01/30 02:12:25;;;;;;;50.93;45.53;;;5.60;99.90;;;;;;5986141;23;20810;-71
2023/01/30 02:14:56;;;;;;;48.83;43.63;;;5.60;99.90;;;;;;6020762;23;20434;-71
2023/01/30 02:17:24;;;;;;;50.13;44.73;;;5.60;99.90;;;;;;6020614;23;20429;-71
2023/01/30 02:20:02;;;;;;;47.57;42.37;;;5.60;99.90;;;;;;5986003;23;20889;-71
2023/01/30 02:23:00;;;;;;;48.53;42.27;;;5.60;99.90;;;;;;5986010;23;20416;-71
2023/01/30 02:26:12;;;;;;;47.00;41.60;;;5.60;99.90;;;;;;5964085;23;20421;-71
2023/01/30 02:29:10;;;;;;;49.33;41.23;;;5.70;99.90;;;;;;5938442;23;20440;-71
2023/01/30 02:31:45;;;;;;;46.10;41.13;;;5.70;99.90;;;;;;5987530;23;20419;-71
2023/01/30 02:34:30;;;;;;;46.00;41.17;;;5.60;99.90;;;;;;5987534;23;20776;-71
2023/01/30 02:37:07;;;;;;;45.40;40.50;;;5.60;99.90;;;;;;5987521;23;20419;-71
2023/01/30 02:39:48;;;;;;;45.07;40.40;;;5.70;99.90;;;;;;6021974;23;20850;-71
2023/01/30 02:42:25;;;;;;;45.17;40.40;;;5.70;99.90;;;;;;5994591;24;20835;-71
2023/01/30 02:45:01;;;;;;;45.33;39.83;;;5.70;99.90;;;;;;5959676;24;20744;-71
2023/01/30 02:47:36;;;;;;;44.93;40.37;;;5.70;99.90;;;;;;5959612;24;20449;-71
2023/01/30 02:50:10;;;;;;;44.37;39.40;;;5.70;99.90;;;;;;5959616;24;20417;-72
2023/01/30 02:52:40;;;;;;;44.53;39.70;;;5.70;99.90;;;;;;5959728;24;20893;-71
2023/01/30 02:55:10;;;;;;;45.00;40.17;;;5.70;99.90;;;;;;5959885;24;20423;-71
2023/01/30 02:57:38;;;;;;;45.23;40.30;;;5.70;99.90;;;;;;5959551;24;20934;-71
2023/01/30 03:00:08;;;;;;;42.47;37.90;;;5.70;99.90;;;;;;5959577;24;20479;-71
2023/01/30 03:02:49;;;;;;;43.97;39.10;;;5.70;99.90;;;;;;5959575;24;20456;-71
2023/01/30 03:05:31;;;;;;;41.80;37.50;;;5.80;99.90;;;;;;5960234;24;20981;-71
2023/01/30 03:08:09;;;;;;;42.77;38.10;;;5.70;99.90;;;;;;5993738;23;20426;-71
2023/01/30 03:10:43;;;;;;;38.90;34.90;;;5.80;99.90;;;;;;5959811;24;20476;-72
2023/01/30 03:13:20;;;;;;;39.90;35.60;;;5.80;99.90;;;;;;5993791;24;20427;-72
2023/01/30 03:15:52;;;;;;;37.70;33.70;;;5.80;99.90;;;;;;5959617;24;20414;-71
2023/01/30 03:18:22;;;;;;;37.50;33.60;;;5.80;99.90;;;;;;5959708;24;20524;-71
2023/01/30 03:20:52;;;;;;;38.20;34.10;;;5.80;99.90;;;;;;5959478;24;20422;-71
2023/01/30 03:23:20;;;;;;;35.70;32.00;;;5.80;99.90;;;;;;5959458;24;20901;-72
2023/01/30 03:25:49;;;;;;;37.93;34.03;;;5.80;99.90;;;;;;5959292;24;20418;-72
2023/01/30 03:28:20;;;;;;;35.90;32.00;;;5.90;99.90;;;;;;5959505;24;20450;-72
2023/01/30 03:30:49;;;;;;;34.80;31.20;;;5.80;99.90;;;;;;5960382;24;20436;-72
2023/01/30 03:33:17;;;;;;;37.37;33.47;;;5.90;99.90;;;;;;5993277;24;20461;-72
2023/01/30 03:35:50;;;;;;;35.40;30.90;;;5.90;99.90;;;;;;5959318;24;20417;-72
2023/01/30 03:38:19;;;;;;;31.60;28.40;;;5.90;99.90;;;;;;5959085;24;20518;-72
2023/01/30 03:40:50;;;;;;;32.00;28.70;;;5.90;99.90;;;;;;6005829;23;20748;-72
2023/01/30 03:43:18;;;;;;;32.70;29.50;;;5.90;99.90;;;;;;5987023;23;20428;-73
2023/01/30 03:45:46;;;;;;;30.90;27.70;;;6.00;99.90;;;;;;5987155;23;20423;-73
2023/01/30 03:48:14;;;;;;;31.07;27.73;;;6.00;99.90;;;;;;5987159;23;20481;-73
2023/01/30 03:50:42;;;;;;;30.30;26.53;;;6.00;99.90;;;;;;5986973;23;20778;-73
2023/01/30 03:53:13;;;;;;;29.07;26.07;;;6.00;99.90;;;;;;5987601;23;20469;-73
2023/01/30 03:55:43;;;;;;;27.93;25.07;;;6.00;99.90;;;;;;5986982;23;20417;-73
2023/01/30 03:58:11;;;;;;;28.47;25.47;;;6.00;99.90;;;;;;5986879;23;20452;-73
2023/01/30 04:00:40;;;;;;;26.30;23.47;;;6.00;99.90;;;;;;5986984;23;20413;-73
2023/01/30 04:03:08;;;;;;;26.33;23.63;;;6.10;99.90;;;;;;5987016;23;20425;-73
2023/01/30 04:05:37;;;;;;;25.37;22.77;;;6.10;99.90;;;;;;5986921;23;20415;-72
2023/01/30 04:08:08;;;;;;;24.73;21.97;;;6.10;99.90;;;;;;5986832;23;20445;-73
2023/01/30 04:10:37;;;;;;;25.50;22.90;;;6.10;99.90;;;;;;5986861;23;20885;-73
2023/01/30 04:13:05;;;;;;;22.43;20.03;;;6.10;99.90;;;;;;6021294;23;20744;-73
2023/01/30 04:15:34;;;;;;;21.47;18.90;;;6.20;99.90;;;;;;5986694;23;20497;-73
2023/01/30 04:18:17;;;;;;;21.93;19.67;;;6.20;99.90;;;;;;5986907;23;20463;-73
2023/01/30 04:20:51;;;;;;;20.57;18.43;;;6.20;99.90;;;;;;5986865;23;20827;-73
2023/01/30 04:23:25;;;;;;;19.70;17.00;;;6.30;99.90;;;;;;5987798;23;20421;-73
2023/01/30 04:25:54;;;;;;;19.03;16.67;;;6.30;99.90;;;;;;5986682;23;20831;-73
2023/01/30 04:28:25;;;;;;;18.97;15.30;;;6.30;99.90;;;;;;5986657;23;20478;-73
2023/01/30 04:30:54;;;;;;;18.67;15.40;;;6.40;99.90;;;;;;5986904;23;20450;-72
2023/01/30 04:33:36;;;;;;;18.23;15.03;;;6.40;99.90;;;;;;5986536;23;20913;-73
2023/01/30 04:36:08;;;;;;;14.93;12.80;;;6.40;99.90;;;;;;5986793;23;20417;-73
2023/01/30 04:38:37;;;;;;;12.07;8.80;;;6.50;99.90;;;;;;5987261;23;20460;-73
2023/01/30 04:41:07;;;;;;;8.50;5.93;;;6.50;99.90;;;;;;5997820;23;20429;-73
2023/01/30 04:43:39;;;;;;;7.53;5.17;;;6.50;99.90;;;;;;6010072;23;20475;-73
2023/01/30 04:46:24;;;;;;;8.90;5.20;;;6.50;99.90;;;;;;6009956;23;20417;-73
2023/01/30 04:48:52;;;;;;;9.23;4.80;;;6.50;99.90;;;;;;6009939;23;20543;-73
2023/01/30 04:51:20;;;;;;;9.90;5.70;;;6.50;99.90;;;;;;6009922;23;20411;-73
2023/01/30 04:53:49;;;;;;;7.50;4.97;;;6.50;99.90;;;;;;6009889;23;20432;-73
2023/01/30 04:56:18;;;;;;;13.80;5.97;;;6.50;99.90;;;;;;6009963;23;20508;-73
2023/01/30 04:58:48;;;;;;;11.77;6.80;;;6.50;99.90;;;;;;6009934;23;20450;-73
2023/01/30 05:01:23;;;;;;;11.80;6.00;;;6.50;99.90;;;;;;6009442;23;20424;-72
2023/01/30 05:03:52;;;;;;;12.13;6.10;;;6.50;99.90;;;;;;6020771;23;20404;-72
2023/01/30 05:06:20;;;;;;;9.80;5.73;;;6.50;99.90;;;;;;6010190;23;20416;-73
2023/01/30 05:08:49;;;;;;;13.40;6.90;;;6.50;99.90;;;;;;6020708;23;20512;-73
2023/01/30 05:11:20;;;;;;;12.43;6.33;;;6.50;99.90;;;;;;6020910;23;20402;-72
2023/01/30 05:13:48;;;;;;;17.90;7.07;;;6.50;99.90;;;;;;6020692;23;20441;-72
2023/01/30 05:16:18;;;;;;;15.77;7.20;;;6.50;99.90;;;;;;6020735;23;20405;-72
2023/01/30 05:18:46;;;;;;;17.33;6.43;;;6.50;99.90;;;;;;6021041;23;20426;-72
2023/01/30 05:21:16;;;;;;;21.50;6.30;;;6.50;99.90;;;;;;6021392;23;20436;-72
2023/01/30 05:23:44;;;;;;;22.60;7.00;;;6.50;99.90;;;;;;6020789;23;20412;-72
2023/01/30 05:26:13;;;;;;;19.93;7.03;;;6.50;99.90;;;;;;6021050;23;20401;-72
2023/01/30 05:28:43;;;;;;;18.80;6.60;;;6.50;99.90;;;;;;6020633;23;20764;-72
2023/01/30 05:31:13;;;;;;;22.20;6.80;;;6.50;99.90;;;;;;6021344;23;20398;-72
2023/01/30 05:33:41;;;;;;;26.30;6.37;;;6.50;99.90;;;;;;6010140;23;20422;-72
2023/01/30 05:36:14;;;;;;;21.20;7.50;;;6.50;99.90;;;;;;6020482;23;20439;-72
2023/01/30 05:38:43;;;;;;;21.20;6.13;;;6.50;99.90;;;;;;6009647;23;20438;-72
2023/01/30 05:41:12;;;;;;;21.20;6.97;;;6.50;99.90;;;;;;6020483;23;20418;-72
2023/01/30 05:43:40;;;;;;;18.63;7.00;;;6.50;99.90;;;;;;5986544;23;20506;-72
2023/01/30 05:46:12;;;;;;;23.00;6.60;;;6.50;99.90;;;;;;6020777;23;20539;-72
2023/01/30 05:48:40;;;;;;;19.07;6.83;;;6.50;99.90;;;;;;6021233;23;20414;-72
2023/01/30 05:51:16;;;;;;;22.33;7.00;;;6.40;99.90;;;;;;6021077;23;20415;-72
2023/01/30 05:53:44;;;;;;;20.00;6.73;;;6.40;99.90;;;;;;6021023;23;20393;-72
2023/01/30 05:56:12;;;;;;;21.93;6.90;;;6.40;99.90;;;;;;6020591;23;20435;-72
2023/01/30 05:58:40;;;;;;;18.70;7.10;;;6.40;99.90;;;;;;6020481;23;20418;-72
2023/01/30 06:01:13;;;;;;;27.47;8.40;;;6.40;99.90;;;;;;5986240;23;20431;-72
2023/01/30 06:03:41;;;;;;;25.63;6.87;;;6.40;99.90;;;;;;6021751;23;20382;-72
2023/01/30 06:06:12;;;;;;;22.50;6.70;;;6.40;99.90;;;;;;6022532;23;20412;-72
2023/01/30 06:08:40;;;;;;;22.10;6.97;;;6.30;99.90;;;;;;6012727;23;20427;-72
2023/01/30 06:11:10;;;;;;;27.13;6.93;;;6.30;99.90;;;;;;6022610;23;20417;-72
2023/01/30 06:13:38;;;;;;;25.40;7.20;;;6.30;99.90;;;;;;6022706;23;20908;-72
2023/01/30 06:16:07;;;;;;;21.50;7.20;;;6.30;99.90;;;;;;6022172;23;20527;-72
2023/01/30 06:18:36;;;;;;;22.30;7.30;;;6.30;99.90;;;;;;5988056;23;20434;-72
2023/01/30 06:21:05;;;;;;;22.13;7.47;;;6.30;99.90;;;;;;5987875;23;20909;-72
2023/01/30 06:23:33;;;;;;;34.77;8.10;;;6.30;99.90;;;;;;6021372;23;20405;-72
2023/01/30 06:26:02;;;;;;;24.87;7.43;;;6.20;99.90;;;;;;6021854;23;20401;-72
2023/01/30 06:28:32;;;;;;;29.17;8.43;;;6.20;99.90;;;;;;5987558;23;20949;-72
2023/01/30 06:31:01;;;;;;;21.67;7.10;;;6.20;99.90;;;;;;6022159;23;20926;-72
2023/01/30 06:33:29;;;;;;;25.30;7.47;;;6.20;99.90;;;;;;6022028;23;20417;-72
2023/01/30 06:35:58;;;;;;;19.90;6.30;;;6.10;99.90;;;;;;6022030;23;20440;-72
2023/01/30 06:38:27;;;;;;;19.43;6.40;;;6.10;99.90;;;;;;6022148;23;20521;-72
2023/01/30 06:40:55;;;;;;;22.73;7.27;;;6.10;99.90;;;;;;5996716;23;20426;-72
2023/01/30 06:43:23;;;;;;;29.33;7.27;;;6.10;99.90;;;;;;6022012;23;20503;-72
2023/01/30 06:45:51;;;;;;;22.30;6.73;;;6.10;99.90;;;;;;6021901;23;20405;-72
2023/01/30 06:48:19;;;;;;;19.00;6.63;;;6.00;99.90;;;;;;6022278;23;20444;-71
2023/01/30 06:50:47;;;;;;;17.23;6.97;;;6.00;99.90;;;;;;6021972;23;20732;-71
2023/01/30 06:53:17;;;;;;;21.27;6.97;;;6.00;99.90;;;;;;6012933;23;20495;-72
2023/01/30 06:55:45;;;;;;;25.17;6.80;;;6.00;99.90;;;;;;6022230;23;20518;-72
2023/01/30 06:58:14;;;;;;;21.87;7.07;;;6.00;99.90;;;;;;6021959;23;20430;-71
2023/01/30 07:00:43;;;;;;;19.57;6.43;;;6.00;99.90;;;;;;6021941;23;20413;-71
2023/01/30 07:03:12;;;;;;;19.13;6.03;;;5.90;99.90;;;;;;6022550;23;20945;-72
2023/01/30 07:05:42;;;;;;;22.13;6.60;;;5.90;99.90;;;;;;6011222;23;20513;-71
2023/01/30 07:08:11;;;;;;;22.23;7.33;;;5.90;99.90;;;;;;6010874;23;20445;-71
2023/01/30 07:10:41;;;;;;;21.73;6.90;;;5.90;99.90;;;;;;6011029;23;20503;-72
2023/01/30 07:13:09;;;;;;;20.43;6.20;;;5.90;99.90;;;;;;6022013;23;20397;-72
2023/01/30 07:15:38;;;;;;;23.83;7.27;;;5.90;99.90;;;;;;6021383;23;20537;-72
2023/01/30 07:18:06;;;;;;;21.10;5.90;;;5.80;99.90;;;;;;6021898;23;20428;-72
2023/01/30 07:20:34;;;;;;;21.67;6.77;;;5.80;99.90;;;;;;6022034;23;20865;-72
2023/01/30 07:23:03;;;;;;;21.73;6.63;;;5.80;99.90;;;;;;6021743;23;20406;-72
2023/01/30 07:25:31;;;;;;;21.10;6.30;;;5.80;99.90;;;;;;6010722;23;20476;-72
2023/01/30 07:28:02;;;;;;;18.90;6.00;;;5.80;99.90;;;;;;6010595;23;20955;-72
2023/01/30 07:30:32;;;;;;;21.07;6.23;;;5.80;99.90;;;;;;6022675;23;20791;-72
2023/01/30 07:33:00;;;;;;;20.87;6.20;;;5.80;99.90;;;;;;6021932;23;20754;-71
2023/01/30 07:35:30;;;;;;;20.50;7.07;;;5.80;99.90;;;;;;6010535;23;20439;-72
2023/01/30 07:37:59;;;;;;;19.00;7.03;;;5.80;99.90;;;;;;6021838;23;20458;-72
2023/01/30 07:40:27;;;;;;;20.67;6.73;;;5.80;99.90;;;;;;6016316;23;20457;-72
2023/01/30 07:42:57;;;;;;;18.23;5.70;;;5.80;99.90;;;;;;6022210;23;20414;-72
2023/01/30 07:45:29;;;;;;;19.43;6.73;;;5.80;99.90;;;;;;6022087;23;20398;-72
2023/01/30 07:47:58;;;;;;;20.07;6.40;;;5.90;99.90;;;;;;5987064;23;20475;-72
2023/01/30 07:50:26;;;;;;;17.60;6.83;;;5.90;99.90;;;;;;5987071;23;20881;-72
2023/01/30 07:52:54;;;;;;;22.23;6.63;;;5.90;99.90;;;;;;6022009;23;20461;-72
2023/01/30 07:55:23;;;;;;;23.33;6.07;;;5.90;99.90;;;;;;6021323;23;20401;-71
2023/01/30 07:57:51;;;;;;;18.90;6.83;;;5.90;99.90;;;;;;6021299;23;20949;-72
2023/01/30 08:00:19;;;;;;;17.87;6.83;;;5.90;99.90;;;;;;5986983;23;20417;-72
2023/01/30 08:02:49;;;;;;;25.33;6.73;;;6.00;99.90;;;;;;5987115;23;20452;-72
2023/01/30 08:05:18;;;;;;;21.00;6.13;;;6.00;99.90;;;;;;5986952;23;20828;-72
2023/01/30 08:07:47;;;;;;;25.23;7.43;;;6.00;99.90;;;;;;5986831;23;20433;-72
2023/01/30 08:10:15;;;;;;;21.77;6.97;;;6.00;99.90;;;;;;6021533;23;20405;-72
2023/01/30 08:12:44;;;;;;;21.63;6.37;;;6.00;99.90;;;;;;6021267;23;20462;-72
2023/01/30 08:15:12;;;;;;;19.93;6.20;;;6.10;99.90;;;;;;6021523;23;20405;-71
2023/01/30 08:17:40;;;;;;;19.40;6.17;;;6.10;99.90;;;;;;6020972;23;20441;-71
2023/01/30 08:20:15;;;;;;;15.60;5.67;;;6.10;99.90;;;;;;6021177;23;20405;-71
2023/01/30 08:22:44;;;;;;;22.27;6.77;;;6.10;99.90;;;;;;6021507;23;20822;-71
2023/01/30 08:25:12;;;;;;;22.43;6.67;;;6.20;99.90;;;;;;5986737;23;20420;-71
2023/01/30 08:27:40;;;;;;;23.20;6.00;;;6.20;99.90;;;;;;5986534;23;20809;-72
2023/01/30 08:30:09;;;;;;;24.40;7.10;;;6.20;99.90;;;;;;6021100;23;20401;-72
2023/01/30 08:32:37;;;;;;;21.90;6.33;;;6.20;99.90;;;;;;6021446;23;20433;-72
2023/01/30 08:35:07;;;;;;;19.63;5.47;;;6.20;99.90;;;;;;6021426;23;20402;-71
2023/01/30 08:37:36;;;;;;;20.00;6.37;;;6.20;99.90;;;;;;5986370;23;20491;-71
2023/01/30 08:40:05;;;;;;;23.93;6.50;;;6.20;99.90;;;;;;6021162;23;21003;-71
2023/01/30 08:42:34;;;;;;;24.63;7.43;;;6.20;99.90;;;;;;6021360;23;20413;-71
2023/01/30 08:45:02;;;;;;;24.07;6.97;;;6.30;99.90;;;;;;6021315;23;20906;-71
2023/01/30 08:47:30;;;;;;;22.77;6.80;;;6.30;99.90;;;;;;5986750;23;20438;-71
2023/01/30 08:49:59;;;;;;;22.33;7.03;;;6.30;99.90;;;;;;5987469;23;20421;-71
2023/01/30 08:52:27;;;;;;;25.50;6.77;;;6.30;99.90;;;;;;5986824;23;20902;-71
2023/01/30 08:54:56;;;;;;;24.80;6.63;;;6.30;99.90;;;;;;5986556;23;20734;-71
2023/01/30 08:57:24;;;;;;;17.80;6.40;;;6.40;99.90;;;;;;6011618;23;20470;-71
2023/01/30 08:59:52;;;;;;;24.70;7.57;;;6.40;99.90;;;;;;5986495;23;20515;-71
2023/01/30 09:02:20;;;;;;;24.53;6.30;;;6.40;99.90;;;;;;6020894;23;20496;-71
2023/01/30 09:04:49;;;;;;;19.03;6.13;;;6.40;99.90;;;;;;6020876;23;20453;-71
2023/01/30 09:07:17;;;;;;;21.50;6.90;;;6.40;99.90;;;;;;6021137;23;20505;-71
2023/01/30 09:09:45;;;;;;;18.43;6.57;;;6.50;99.90;;;;;;6021226;23;20401;-71
2023/01/30 09:12:15;;;;;;;20.70;6.70;;;6.50;99.90;;;;;;6021069;23;20912;-71
2023/01/30 09:14:43;;;;;;;19.57;5.93;;;6.50;99.90;;;;;;5986376;23;20420;-71
2023/01/30 09:17:11;;;;;;;22.83;8.13;;;6.50;99.90;;;;;;6020593;23;20440;-72
2023/01/30 09:19:39;;;;;;;20.73;7.10;;;6.50;99.90;;;;;;5986341;23;20423;-71
2023/01/30 09:22:07;;;;;;;21.50;6.80;;;6.50;99.90;;;;;;5986887;23;20761;-71
2023/01/30 09:24:36;;;;;;;20.70;6.53;;;6.50;99.90;;;;;;5986350;23;20511;-71
2023/01/30 09:27:04;;;;;;;22.63;7.60;;;6.50;99.90;;;;;;6021318;23;20405;-71
2023/01/30 09:29:33;;;;;;;21.73;6.27;;;6.50;99.90;;;;;;6020820;23;20410;-71
2023/01/30 09:32:02;;;;;;;20.90;5.97;;;6.50;99.90;;;;;;6020802;23;20512;-71
2023/01/30 09:34:30;;;;;;;20.13;6.27;;;6.60;99.90;;;;;;6020832;23;20473;-71
2023/01/30 09:36:59;;;;;;;22.67;6.57;;;6.60;99.90;;;;;;6011428;23;20449;-72
2023/01/30 09:39:27;;;;;;;20.40;5.80;;;6.60;99.90;;;;;;5987431;23;20412;-72
2023/01/30 09:42:11;;;;;;;18.17;5.80;;;6.50;99.90;;;;;;6009026;23;20468;-72
2023/01/30 09:45:04;;;;;;;20.93;6.17;;;6.50;99.90;;;;;;6013190;23;20403;-72
2023/01/30 09:47:40;;;;;;;23.03;7.03;;;6.40;99.90;;;;;;6022833;23;20914;-72
2023/01/30 09:50:23;;;;;;;23.33;7.20;;;6.40;99.90;;;;;;6022938;23;20385;-72
2023/01/30 09:52:58;;;;;;;21.23;6.90;;;6.30;99.90;;;;;;6011886;23;20414;-72
2023/01/30 09:55:28;;;;;;;21.33;6.50;;;6.30;99.90;;;;;;6011568;23;20424;-72
2023/01/30 09:57:58;;;;;;;25.67;7.87;;;6.30;99.90;;;;;;6022590;23;20474;-72
2023/01/30 10:00:34;;;;;;;18.80;6.50;;;6.30;99.90;;;;;;6022412;23;20958;-72
2023/01/30 10:03:10;;;;;;;14.87;4.93;;;6.30;99.90;;;;;;6011730;23;20453;-72
2023/01/30 10:05:44;;;;;;;16.13;5.30;;;6.30;99.90;;;;;;6022679;23;20821;-72
2023/01/30 10:08:34;;;;;;;17.80;5.30;;;6.30;99.90;;;;;;6011375;23;20436;-72
2023/01/30 10:11:09;;;;;;;22.80;6.20;;;6.30;99.90;;;;;;6022751;23;20843;-72
2023/01/30 10:14:01;;;;;;;21.47;6.17;;;6.30;99.90;;;;;;6022308;23;20388;-72
2023/01/30 10:16:37;;;;;;;17.80;7.03;;;6.30;99.90;;;;;;6003361;23;20886;-72
2023/01/30 10:19:33;;;;;;;23.07;6.57;;;6.30;99.90;;;;;;6022886;23;20427;-72
2023/01/30 10:22:16;;;;;;;23.60;6.50;;;6.30;99.90;;;;;;6006322;23;20931;-72
2023/01/30 10:24:56;;;;;;;16.90;5.20;;;6.30;99.90;;;;;;6022597;23;20713;-72
2023/01/30 10:27:29;;;;;;;18.80;5.40;;;6.40;99.90;;;;;;6022498;23;20421;-72
2023/01/30 10:30:01;;;;;;;18.50;5.47;;;6.40;99.90;;;;;;6013055;23;20389;-72
2023/01/30 10:32:38;;;;;;;20.03;5.87;;;6.40;99.90;;;;;;6022814;23;20390;-72
2023/01/30 10:35:15;;;;;;;22.60;7.20;;;6.40;99.90;;;;;;6022132;23;20388;-72
2023/01/30 10:37:53;;;;;;;16.20;4.70;;;6.50;99.90;;;;;;6010886;23;20534;-72
2023/01/30 10:40:28;;;;;;;15.37;4.77;;;6.50;99.90;;;;;;6010944;23;20442;-72
2023/01/30 10:59:11;;;;;;;21.50;5.20;;;6.40;99.90;;;;;;5132356;27;20652;-73
2023/01/30 11:01:44;;;;;;;14.97;4.77;;;6.60;99.90;;;;;;5132050;28;20413;-73
2023/01/30 11:04:22;;;;;;;15.23;5.00;;;6.50;99.90;;;;;;5131434;28;20417;-74
2023/01/30 11:06:52;;;;;;;13.70;4.87;;;6.50;99.90;;;;;;5113060;28;20455;-73
2023/01/30 11:09:20;;;;;;;14.17;3.90;;;6.50;99.90;;;;;;5131445;28;20438;-74
2023/01/30 11:11:53;;;;;;;14.50;5.00;;;6.50;99.90;;;;;;5112908;28;20443;-74
2023/01/30 11:14:22;;;;;;;16.83;4.83;;;6.50;99.90;;;;;;5131237;28;20520;-74
2023/01/30 11:16:53;;;;;;;15.23;5.20;;;6.50;99.90;;;;;;5131169;28;20464;-73
2023/01/30 11:19:24;;;;;;;23.13;5.50;;;6.50;99.90;;;;;;5112780;28;20881;-74
2023/01/30 11:21:55;;;;;;;15.53;4.70;;;6.50;99.90;;;;;;5112787;28;20449;-74
2023/01/30 11:24:29;;;;;;;18.93;5.30;;;6.60;99.90;;;;;;5131207;28;20417;-73
2023/01/30 11:27:09;;;;;;;13.93;5.03;;;6.60;99.90;;;;;;5112520;28;20527;-73
2023/01/30 11:29:39;;;;;;;18.00;6.27;;;6.70;99.90;;;;;;5131248;28;20426;-74
2023/01/30 11:32:14;;;;;;;21.30;6.30;;;6.80;99.90;;;;;;5131283;28;20444;-73
2023/01/30 11:34:43;;;;;;;15.40;5.63;;;6.90;99.90;;;;;;5112509;28;20783;-72
2023/01/30 11:37:25;;;;;;;17.90;5.40;;;7.00;99.90;;;;;;5130793;28;20503;-74
2023/01/30 11:39:53;;;;;;;19.20;5.83;;;7.00;99.90;;;;;;5130851;28;20408;-73
2023/01/30 11:42:29;;;;;;;18.33;6.17;;;7.00;99.90;;;;;;5112285;28;20851;-73
2023/01/30 11:45:01;;;;;;;23.60;6.03;;;7.10;99.90;;;;;;5131106;28;20428;-74
2023/01/30 11:47:52;;;;;;;20.47;6.20;;;7.10;99.90;;;;;;5131317;28;20476;-74
2023/01/30 11:50:31;;;;;;;17.83;5.47;;;7.10;99.90;;;;;;5131027;28;20464;-74
2023/01/30 11:53:17;;;;;;;21.27;6.00;;;7.10;99.90;;;;;;5130574;28;20474;-73
2023/01/30 11:55:45;;;;;;;17.10;4.93;;;7.10;99.90;;;;;;5130802;28;20411;-73
2023/01/30 11:58:31;;;;;;;21.30;6.93;;;7.20;99.90;;;;;;5125026;28;20984;-73
2023/01/30 12:01:01;;;;;;;19.87;6.20;;;7.20;99.90;;;;;;5117230;28;20407;-74
2023/01/30 12:03:30;;;;;;;18.50;6.07;;;7.20;99.90;;;;;;5116829;28;20447;-73
2023/01/30 12:05:59;;;;;;;17.47;6.57;;;7.30;99.90;;;;;;5116471;28;20473;-74
2023/01/30 12:08:32;;;;;;;20.03;6.70;;;7.30;99.90;;;;;;5116477;28;20483;-73
2023/01/30 12:11:29;;;;;;;22.57;6.40;;;7.40;99.90;;;;;;5116806;28;20421;-72
2023/01/30 12:14:08;;;;;;;18.10;5.47;;;7.40;99.90;;;;;;5098756;28;20447;-73
2023/01/30 12:16:52;;;;;;;17.23;5.70;;;7.50;99.90;;;;;;5116692;28;20442;-72
2023/01/30 12:19:31;;;;;;;18.47;6.63;;;7.40;99.90;;;;;;5116975;28;20794;-73
2023/01/30 12:22:04;;;;;;;18.70;6.50;;;7.40;99.90;;;;;;5116951;28;20513;-72
2023/01/30 12:24:39;;;;;;;19.67;5.90;;;7.40;99.90;;;;;;5116621;28;20454;-72
2023/01/30 12:27:16;;;;;;;19.20;6.43;;;7.40;99.90;;;;;;5097987;28;20436;-73
2023/01/30 12:29:56;;;;;;;23.13;6.63;;;7.40;99.90;;;;;;5116149;28;20504;-73
2023/01/30 12:32:31;;;;;;;23.43;6.97;;;7.40;99.90;;;;;;5116031;28;20890;-73
2023/01/30 12:34:59;;;;;;;20.03;5.90;;;7.40;99.90;;;;;;5116046;28;20521;-73
2023/01/30 12:37:42;;;;;;;15.07;5.87;;;7.40;99.90;;;;;;5115834;28;20558;-73
2023/01/30 12:40:24;;;;;;;24.33;6.40;;;7.40;99.90;;;;;;5116213;28;20431;-73
2023/01/30 12:43:19;;;;;;;17.60;6.17;;;7.40;99.90;;;;;;5116461;28;20463;-73
2023/01/30 12:45:55;;;;;;;22.20;6.60;;;7.40;99.90;;;;;;5112840;28;20964;-73
2023/01/30 12:48:58;;;;;;;16.83;5.50;;;7.40;99.90;;;;;;5115629;28;20461;-73
2023/01/30 12:51:55;;;;;;;18.97;5.53;;;7.30;99.90;;;;;;5115685;28;20501;-73
2023/01/30 12:54:39;;;;;;;12.20;4.50;;;7.30;99.90;;;;;;5115918;28;20415;-74
2023/01/30 12:57:20;;;;;;;14.37;4.00;;;7.30;99.90;;;;;;5116188;28;20451;-74
2023/01/30 12:59:58;;;;;;;12.03;3.70;;;7.30;99.90;;;;;;5115798;28;20437;-73
2023/01/30 13:02:56;;;;;;;11.67;3.70;;;7.30;99.90;;;;;;5115761;28;20505;-73
2023/01/30 13:05:39;;;;;;;9.27;3.63;;;7.30;99.90;;;;;;5116096;28;20897;-74
2023/01/30 13:08:35;;;;;;;12.90;3.97;;;7.20;99.90;;;;;;5096954;28;20460;-73
2023/01/30 13:11:14;;;;;;;13.90;5.00;;;7.20;99.90;;;;;;5106808;28;20814;-73
2023/01/30 13:13:51;;;;;;;12.90;4.03;;;7.30;99.90;;;;;;5115534;28;20820;-72
2023/01/30 13:16:27;;;;;;;16.30;3.80;;;7.30;99.90;;;;;;5115408;28;20906;-73
2023/01/30 13:19:03;;;;;;;14.27;4.30;;;7.30;99.90;;;;;;5119432;28;20475;-72
2023/01/30 13:21:38;;;;;;;17.23;5.33;;;7.30;99.90;;;;;;5119987;28;20415;-72
2023/01/30 13:24:19;;;;;;;15.17;4.77;;;7.30;99.90;;;;;;5117444;28;20444;-72
2023/01/30 13:26:49;;;;;;;18.40;5.13;;;7.30;99.90;;;;;;5118103;28;20880;-72
2023/01/30 13:29:31;;;;;;;11.03;4.90;;;7.30;99.90;;;;;;5117713;28;20425;-72
2023/01/30 13:32:06;;;;;;;17.77;4.90;;;7.30;99.90;;;;;;5116909;28;20416;-72